This London Heathrow Airport weather forecast is generated by the Met Office Weather Widget

AirNav RadarBox - Metar Weather
  London Heathrow Metar Weather
 

METAR = EGLL 241220Z VRB02KT 9999 FEW034 16/07 Q1019

STATION........ EGLL
OBSERVED....... Thu Apr 24, 13:20 BST
NOW............ Thu Apr 24, 13:48 BST
AGE............ 28 min ago
WIND........... varies at 2 mph
VISIBILITY..... 16 miles
CLOUDS......... partly cloudy
TEMP........... 61°F (16°C)
DEWPT.......... 45°F (7°C)
HUMIDITY....... 55%
BAROMETER...... 1019 hPa (30.09 in Hg)

Thu Apr 24 2014, sunrise time : 04:50
Thu Apr 24 2014, sunset time : 19:09